sensor_id;sensor_type;location;lat;lon;timestamp;pressure;altitude;pressure_sealevel;temperature;humidity
11343;BME280;5726;42.160;24.746;2023-03-18T00:00:49;100123.09;;;7.36;62.38
11343;BME280;5726;42.160;24.746;2023-03-18T00:03:15;100120.16;;;7.37;62.93
11343;BME280;5726;42.160;24.746;2023-03-18T00:05:41;100117.28;;;7.75;61.12
11343;BME280;5726;42.160;24.746;2023-03-18T00:08:07;100107.13;;;7.77;60.88
11343;BME280;5726;42.160;24.746;2023-03-18T00:10:33;100112.47;;;7.77;61.00
11343;BME280;5726;42.160;24.746;2023-03-18T00:12:59;100102.13;;;7.80;60.50
11343;BME280;5726;42.160;24.746;2023-03-18T00:15:26;100099.72;;;7.84;60.73
11343;BME280;5726;42.160;24.746;2023-03-18T00:17:51;100102.28;;;7.69;61.00
11343;BME280;5726;42.160;24.746;2023-03-18T00:20:17;100098.41;;;7.86;60.39
11343;BME280;5726;42.160;24.746;2023-03-18T00:22:53;100096.53;;;7.82;60.78
11343;BME280;5726;42.160;24.746;2023-03-18T00:25:20;100096.09;;;7.63;61.94
11343;BME280;5726;42.160;24.746;2023-03-18T00:27:45;100098.88;;;7.47;62.57
11343;BME280;5726;42.160;24.746;2023-03-18T00:30:12;100100.53;;;7.53;62.65
11343;BME280;5726;42.160;24.746;2023-03-18T00:32:37;100102.69;;;7.56;63.15
11343;BME280;5726;42.160;24.746;2023-03-18T00:35:03;100094.81;;;7.71;62.31
11343;BME280;5726;42.160;24.746;2023-03-18T00:37:29;100089.91;;;7.94;60.66
11343;BME280;5726;42.160;24.746;2023-03-18T00:39:59;100086.91;;;7.86;61.18
11343;BME280;5726;42.160;24.746;2023-03-18T00:42:38;100079.84;;;8.06;60.41
11343;BME280;5726;42.160;24.746;2023-03-18T00:45:12;100081.34;;;8.33;58.59
11343;BME280;5726;42.160;24.746;2023-03-18T00:47:38;100087.59;;;8.03;60.01
11343;BME280;5726;42.160;24.746;2023-03-18T00:50:08;100076.44;;;8.15;59.32
11343;BME280;5726;42.160;24.746;2023-03-18T00:52:35;100075.28;;;8.43;58.08
11343;BME280;5726;42.160;24.746;2023-03-18T00:55:00;100076.66;;;8.55;56.97
11343;BME280;5726;42.160;24.746;2023-03-18T00:57:27;100077.97;;;8.53;56.84
11343;BME280;5726;42.160;24.746;2023-03-18T00:59:52;100075.59;;;8.61;56.79
11343;BME280;5726;42.160;24.746;2023-03-18T01:02:18;100071.31;;;8.60;56.84
11343;BME280;5726;42.160;24.746;2023-03-18T01:04:43;100070.34;;;8.96;54.81
11343;BME280;5726;42.160;24.746;2023-03-18T01:07:10;100081.22;;;8.55;56.63
11343;BME280;5726;42.160;24.746;2023-03-18T01:09:36;100069.09;;;8.37;57.73
11343;BME280;5726;42.160;24.746;2023-03-18T01:12:08;100074.44;;;8.37;57.91
11343;BME280;5726;42.160;24.746;2023-03-18T01:14:35;100075.47;;;8.31;58.99
11343;BME280;5726;42.160;24.746;2023-03-18T01:17:01;100078.66;;;8.23;59.49
11343;BME280;5726;42.160;24.746;2023-03-18T01:19:27;100078.16;;;8.31;58.45
11343;BME280;5726;42.160;24.746;2023-03-18T01:21:53;100070.94;;;8.32;58.60
11343;BME280;5726;42.160;24.746;2023-03-18T01:24:19;100069.09;;;8.37;58.43
11343;BME280;5726;42.160;24.746;2023-03-18T01:26:45;100062.47;;;8.50;57.88
11343;BME280;5726;42.160;24.746;2023-03-18T01:29:11;100064.44;;;8.74;56.85
11343;BME280;5726;42.160;24.746;2023-03-18T01:31:36;100060.88;;;8.58;57.01
11343;BME280;5726;42.160;24.746;2023-03-18T01:34:02;100062.69;;;8.38;57.61
11343;BME280;5726;42.160;24.746;2023-03-18T01:36:28;100058.34;;;8.27;58.31
11343;BME280;5726;42.160;24.746;2023-03-18T01:38:54;100057.38;;;8.43;58.02
11343;BME280;5726;42.160;24.746;2023-03-18T01:41:23;100057.63;;;7.96;60.00
11343;BME280;5726;42.160;24.746;2023-03-18T01:43:50;100055.81;;;7.65;62.69
11343;BME280;5726;42.160;24.746;2023-03-18T01:46:38;100050.28;;;7.76;63.13
11343;BME280;5726;42.160;24.746;2023-03-18T01:49:26;100056.38;;;7.67;63.08
11343;BME280;5726;42.160;24.746;2023-03-18T01:52:00;100053.66;;;7.62;64.06
11343;BME280;5726;42.160;24.746;2023-03-18T01:54:28;100053.50;;;7.78;63.63
11343;BME280;5726;42.160;24.746;2023-03-18T01:56:55;100050.53;;;7.70;64.05
11343;BME280;5726;42.160;24.746;2023-03-18T01:59:24;100050.66;;;7.90;63.19
11343;BME280;5726;42.160;24.746;2023-03-18T02:01:55;100059.91;;;7.77;63.93
11343;BME280;5726;42.160;24.746;2023-03-18T02:04:25;100048.13;;;7.73;64.44
11343;BME280;5726;42.160;24.746;2023-03-18T02:06:51;100053.69;;;8.08;62.77
11343;BME280;5726;42.160;24.746;2023-03-18T02:09:17;100049.97;;;7.37;66.29
11343;BME280;5726;42.160;24.746;2023-03-18T02:11:45;100047.56;;;7.35;67.30
11343;BME280;5726;42.160;24.746;2023-03-18T02:14:14;100046.53;;;7.36;66.79
11343;BME280;5726;42.160;24.746;2023-03-18T02:16:46;100054.09;;;7.49;66.17
11343;BME280;5726;42.160;24.746;2023-03-18T02:22:04;100052.06;;;7.61;65.35
11343;BME280;5726;42.160;24.746;2023-03-18T02:24:47;100055.28;;;7.68;64.84
11343;BME280;5726;42.160;24.746;2023-03-18T02:27:17;100048.41;;;7.72;64.52
11343;BME280;5726;42.160;24.746;2023-03-18T02:29:43;100049.25;;;7.82;64.07
11343;BME280;5726;42.160;24.746;2023-03-18T02:32:11;100054.06;;;7.80;64.14
11343;BME280;5726;42.160;24.746;2023-03-18T02:34:39;100048.34;;;8.08;62.39
11343;BME280;5726;42.160;24.746;2023-03-18T02:37:06;100051.84;;;8.08;62.53
11343;BME280;5726;42.160;24.746;2023-03-18T02:39:35;100041.03;;;7.89;63.76
11343;BME280;5726;42.160;24.746;2023-03-18T02:42:00;100047.53;;;8.03;63.87
11343;BME280;5726;42.160;24.746;2023-03-18T02:44:26;100043.25;;;8.02;63.39
11343;BME280;5726;42.160;24.746;2023-03-18T02:46:58;100057.28;;;7.87;63.86
11343;BME280;5726;42.160;24.746;2023-03-18T02:49:25;100057.34;;;7.92;63.40
11343;BME280;5726;42.160;24.746;2023-03-18T02:51:54;100056.06;;;8.00;62.51
11343;BME280;5726;42.160;24.746;2023-03-18T02:54:29;100055.03;;;8.06;61.70
11343;BME280;5726;42.160;24.746;2023-03-18T02:56:56;100058.28;;;8.12;60.85
11343;BME280;5726;42.160;24.746;2023-03-18T02:59:22;100061.78;;;8.13;60.64
11343;BME280;5726;42.160;24.746;2023-03-18T03:01:50;100060.50;;;8.25;60.33
11343;BME280;5726;42.160;24.746;2023-03-18T03:04:17;100062.38;;;8.30;59.83
11343;BME280;5726;42.160;24.746;2023-03-18T03:06:44;100057.31;;;8.28;59.87
11343;BME280;5726;42.160;24.746;2023-03-18T03:09:13;100063.69;;;8.27;59.92
11343;BME280;5726;42.160;24.746;2023-03-18T03:11:39;100054.63;;;8.28;59.81
11343;BME280;5726;42.160;24.746;2023-03-18T03:14:05;100059.97;;;8.23;59.94
11343;BME280;5726;42.160;24.746;2023-03-18T03:16:31;100059.44;;;8.31;59.69
11343;BME280;5726;42.160;24.746;2023-03-18T03:18:57;100066.97;;;8.39;59.09
11343;BME280;5726;42.160;24.746;2023-03-18T03:21:23;100058.66;;;8.31;59.04
11343;BME280;5726;42.160;24.746;2023-03-18T03:23:49;100055.72;;;8.32;59.41
11343;BME280;5726;42.160;24.746;2023-03-18T03:26:16;100067.16;;;8.23;60.14
11343;BME280;5726;42.160;24.746;2023-03-18T03:28:43;100056.59;;;8.02;61.82
11343;BME280;5726;42.160;24.746;2023-03-18T03:31:09;100070.44;;;7.94;62.60
11343;BME280;5726;42.160;24.746;2023-03-18T03:33:40;100064.78;;;8.26;61.29
11343;BME280;5726;42.160;24.746;2023-03-18T03:36:12;100067.66;;;8.15;61.84
11343;BME280;5726;42.160;24.746;2023-03-18T03:38:38;100068.78;;;7.88;63.65
11343;BME280;5726;42.160;24.746;2023-03-18T03:41:04;100066.03;;;8.14;62.87
11343;BME280;5726;42.160;24.746;2023-03-18T03:43:30;100065.22;;;8.13;62.77
11343;BME280;5726;42.160;24.746;2023-03-18T03:45:58;100058.28;;;8.12;62.81
11343;BME280;5726;42.160;24.746;2023-03-18T03:48:23;100066.16;;;8.34;61.06
11343;BME280;5726;42.160;24.746;2023-03-18T03:50:50;100069.03;;;8.27;60.96
11343;BME280;5726;42.160;24.746;2023-03-18T03:53:15;100072.84;;;7.95;63.21
11343;BME280;5726;42.160;24.746;2023-03-18T03:55:41;100071.94;;;7.80;64.21
11343;BME280;5726;42.160;24.746;2023-03-18T03:58:07;100070.09;;;7.80;64.36
11343;BME280;5726;42.160;24.746;2023-03-18T04:00:33;100076.31;;;7.96;63.55
11343;BME280;5726;42.160;24.746;2023-03-18T04:02:59;100066.16;;;7.98;62.06
11343;BME280;5726;42.160;24.746;2023-03-18T04:05:25;100078.91;;;7.86;62.82
11343;BME280;5726;42.160;24.746;2023-03-18T04:07:51;100072.25;;;7.88;62.91
11343;BME280;5726;42.160;24.746;2023-03-18T04:10:18;100075.16;;;7.82;63.11
11343;BME280;5726;42.160;24.746;2023-03-18T04:12:45;100071.03;;;8.06;62.21
11343;BME280;5726;42.160;24.746;2023-03-18T04:15:12;100072.19;;;8.14;62.03
11343;BME280;5726;42.160;24.746;2023-03-18T04:17:38;100074.44;;;8.37;60.94
11343;BME280;5726;42.160;24.746;2023-03-18T04:20:04;100076.84;;;8.34;60.65
11343;BME280;5726;42.160;24.746;2023-03-18T04:22:31;100070.13;;;8.26;60.57
11343;BME280;5726;42.160;24.746;2023-03-18T04:24:56;100081.28;;;8.18;60.82
11343;BME280;5726;42.160;24.746;2023-03-18T04:27:23;100085.06;;;8.27;60.16
11343;BME280;5726;42.160;24.746;2023-03-18T04:29:49;100092.88;;;7.98;62.00
11343;BME280;5726;42.160;24.746;2023-03-18T04:32:14;100088.09;;;8.00;61.80
11343;BME280;5726;42.160;24.746;2023-03-18T04:34:40;100086.16;;;7.54;63.98
11343;BME280;5726;42.160;24.746;2023-03-18T04:37:05;100087.94;;;7.44;64.71
11343;BME280;5726;42.160;24.746;2023-03-18T04:39:31;100091.47;;;6.97;67.67
11343;BME280;5726;42.160;24.746;2023-03-18T04:41:57;100092.09;;;7.04;67.84
11343;BME280;5726;42.160;24.746;2023-03-18T04:44:23;100093.19;;;7.08;66.81
11343;BME280;5726;42.160;24.746;2023-03-18T04:46:49;100091.22;;;7.24;66.34
11343;BME280;5726;42.160;24.746;2023-03-18T04:49:14;100095.69;;;7.45;65.03
11343;BME280;5726;42.160;24.746;2023-03-18T04:51:40;100096.56;;;7.56;63.94
11343;BME280;5726;42.160;24.746;2023-03-18T04:54:05;100100.03;;;7.56;62.97
11343;BME280;5726;42.160;24.746;2023-03-18T04:56:31;100097.94;;;7.58;62.86
11343;BME280;5726;42.160;24.746;2023-03-18T04:58:57;100096.97;;;7.43;63.00
11343;BME280;5726;42.160;24.746;2023-03-18T05:01:23;100105.50;;;7.40;63.65
11343;BME280;5726;42.160;24.746;2023-03-18T05:03:48;100090.19;;;7.25;63.71
11343;BME280;5726;42.160;24.746;2023-03-18T05:06:21;100093.34;;;6.96;66.09
11343;BME280;5726;42.160;24.746;2023-03-18T05:08:47;100094.91;;;6.71;67.28
11343;BME280;5726;42.160;24.746;2023-03-18T05:11:13;100093.47;;;6.85;67.37
11343;BME280;5726;42.160;24.746;2023-03-18T05:13:39;100100.75;;;7.15;65.33
11343;BME280;5726;42.160;24.746;2023-03-18T05:16:05;100100.63;;;7.06;65.83
11343;BME280;5726;42.160;24.746;2023-03-18T05:18:31;100095.25;;;7.01;66.18
11343;BME280;5726;42.160;24.746;2023-03-18T05:20:57;100097.06;;;7.21;68.35
11343;BME280;5726;42.160;24.746;2023-03-18T05:23:24;100097.13;;;7.00;65.84
11343;BME280;5726;42.160;24.746;2023-03-18T05:25:49;100103.09;;;6.86;68.57
11343;BME280;5726;42.160;24.746;2023-03-18T05:28:15;100096.50;;;6.93;67.76
11343;BME280;5726;42.160;24.746;2023-03-18T05:30:41;100103.25;;;7.01;67.54
11343;BME280;5726;42.160;24.746;2023-03-18T05:33:07;100100.84;;;7.25;65.40
11343;BME280;5726;42.160;24.746;2023-03-18T05:35:32;100107.00;;;7.31;65.67
11343;BME280;5726;42.160;24.746;2023-03-18T05:37:58;100111.97;;;7.49;63.86
11343;BME280;5726;42.160;24.746;2023-03-18T05:40:23;100111.56;;;7.61;64.67
11343;BME280;5726;42.160;24.746;2023-03-18T05:42:49;100120.81;;;7.23;65.58
11343;BME280;5726;42.160;24.746;2023-03-18T05:45:14;100116.69;;;7.11;66.80
11343;BME280;5726;42.160;24.746;2023-03-18T05:47:39;100111.66;;;7.14;66.55
11343;BME280;5726;42.160;24.746;2023-03-18T05:50:05;100112.09;;;7.32;65.61
11343;BME280;5726;42.160;24.746;2023-03-18T05:52:31;100113.22;;;7.67;63.15
11343;BME280;5726;42.160;24.746;2023-03-18T05:54:57;100116.91;;;7.61;63.48
11343;BME280;5726;42.160;24.746;2023-03-18T05:57:22;100115.66;;;7.74;67.22
11343;BME280;5726;42.160;24.746;2023-03-18T05:59:47;100121.84;;;7.48;65.32
11343;BME280;5726;42.160;24.746;2023-03-18T06:02:13;100118.00;;;8.02;79.32
11343;BME280;5726;42.160;24.746;2023-03-18T06:04:38;100115.75;;;8.20;68.67
11343;BME280;5726;42.160;24.746;2023-03-18T06:07:04;100114.53;;;8.42;72.25
11343;BME280;5726;42.160;24.746;2023-03-18T06:09:30;100119.50;;;8.24;72.96
11343;BME280;5726;42.160;24.746;2023-03-18T06:11:57;100119.63;;;8.03;69.52
11343;BME280;5726;42.160;24.746;2023-03-18T06:14:24;100119.06;;;8.01;68.79
11343;BME280;5726;42.160;24.746;2023-03-18T06:16:54;100114.13;;;8.65;64.25
11343;BME280;5726;42.160;24.746;2023-03-18T06:19:20;100117.84;;;8.59;64.61
11343;BME280;5726;42.160;24.746;2023-03-18T06:21:46;100103.16;;;8.15;64.85
11343;BME280;5726;42.160;24.746;2023-03-18T06:24:12;100109.41;;;8.31;65.65
11343;BME280;5726;42.160;24.746;2023-03-18T06:26:40;100106.50;;;8.37;64.92
11343;BME280;5726;42.160;24.746;2023-03-18T06:29:06;100108.31;;;8.27;64.96
11343;BME280;5726;42.160;24.746;2023-03-18T06:31:33;100112.94;;;8.41;65.12
11343;BME280;5726;42.160;24.746;2023-03-18T06:33:58;100104.06;;;9.02;61.09
11343;BME280;5726;42.160;24.746;2023-03-18T06:36:24;100104.06;;;9.02;59.93
11343;BME280;5726;42.160;24.746;2023-03-18T06:38:50;100104.28;;;8.75;62.01
11343;BME280;5726;42.160;24.746;2023-03-18T06:41:16;100102.47;;;9.01;60.25
11343;BME280;5726;42.160;24.746;2023-03-18T06:43:41;100098.47;;;9.18;57.64
11343;BME280;5726;42.160;24.746;2023-03-18T06:46:07;100097.13;;;9.01;59.07
11343;BME280;5726;42.160;24.746;2023-03-18T06:48:32;100103.00;;;9.03;57.50
11343;BME280;5726;42.160;24.746;2023-03-18T06:50:59;100091.75;;;8.86;59.55
11343;BME280;5726;42.160;24.746;2023-03-18T06:53:25;100095.00;;;9.03;60.67
11343;BME280;5726;42.160;24.746;2023-03-18T06:55:51;100086.34;;;8.81;58.88
11343;BME280;5726;42.160;24.746;2023-03-18T06:58:18;100090.69;;;8.92;58.66
11343;BME280;5726;42.160;24.746;2023-03-18T07:00:43;100095.78;;;8.93;58.79
11343;BME280;5726;42.160;24.746;2023-03-18T07:03:11;100091.53;;;9.07;57.66
11343;BME280;5726;42.160;24.746;2023-03-18T07:05:39;100092.19;;;8.63;59.62
11343;BME280;5726;42.160;24.746;2023-03-18T07:08:07;100093.88;;;8.89;62.53
11343;BME280;5726;42.160;24.746;2023-03-18T07:10:33;100097.97;;;9.11;58.81
11343;BME280;5726;42.160;24.746;2023-03-18T07:12:59;100095.03;;;9.32;58.56
11343;BME280;5726;42.160;24.746;2023-03-18T07:15:24;100099.56;;;9.22;58.26
11343;BME280;5726;42.160;24.746;2023-03-18T07:17:51;100099.31;;;9.23;58.63
11343;BME280;5726;42.160;24.746;2023-03-18T07:20:17;100099.34;;;9.48;57.03
11343;BME280;5726;42.160;24.746;2023-03-18T07:22:44;100088.88;;;9.42;56.77
11343;BME280;5726;42.160;24.746;2023-03-18T07:25:11;100088.34;;;9.40;56.93
11343;BME280;5726;42.160;24.746;2023-03-18T07:27:37;100080.81;;;9.12;57.63
11343;BME280;5726;42.160;24.746;2023-03-18T07:30:04;100078.16;;;9.22;59.63
11343;BME280;5726;42.160;24.746;2023-03-18T07:32:30;100077.94;;;9.63;62.37
11343;BME280;5726;42.160;24.746;2023-03-18T07:34:56;100080.31;;;9.45;59.69
11343;BME280;5726;42.160;24.746;2023-03-18T07:37:23;100085.16;;;9.57;55.75
11343;BME280;5726;42.160;24.746;2023-03-18T07:39:49;100085.69;;;9.59;55.30
11343;BME280;5726;42.160;24.746;2023-03-18T07:42:15;100083.78;;;9.20;57.41
11343;BME280;5726;42.160;24.746;2023-03-18T07:44:40;100077.34;;;9.06;57.98
11343;BME280;5726;42.160;24.746;2023-03-18T07:47:06;100086.97;;;9.07;59.41
11343;BME280;5726;42.160;24.746;2023-03-18T07:49:31;100088.06;;;9.21;58.34
11343;BME280;5726;42.160;24.746;2023-03-18T07:51:57;100081.94;;;9.41;56.35
11343;BME280;5726;42.160;24.746;2023-03-18T07:54:22;100090.75;;;9.46;55.86
11343;BME280;5726;42.160;24.746;2023-03-18T07:56:50;100088.09;;;9.51;55.04
11343;BME280;5726;42.160;24.746;2023-03-18T07:59:16;100092.38;;;9.47;55.86
11343;BME280;5726;42.160;24.746;2023-03-18T08:01:41;100094.47;;;9.25;56.92
11343;BME280;5726;42.160;24.746;2023-03-18T08:04:07;100091.56;;;9.32;56.94
11343;BME280;5726;42.160;24.746;2023-03-18T08:06:33;100104.84;;;8.87;59.36
11343;BME280;5726;42.160;24.746;2023-03-18T08:08:59;100101.13;;;8.93;59.40
11343;BME280;5726;42.160;24.746;2023-03-18T08:11:25;100100.66;;;9.26;57.82
11343;BME280;5726;42.160;24.746;2023-03-18T08:13:51;100114.28;;;9.14;58.49
11343;BME280;5726;42.160;24.746;2023-03-18T08:16:16;100110.56;;;9.35;57.05
11343;BME280;5726;42.160;24.746;2023-03-18T08:18:43;100103.56;;;9.19;57.10
11343;BME280;5726;42.160;24.746;2023-03-18T08:21:08;100114.81;;;9.21;56.95
11343;BME280;5726;42.160;24.746;2023-03-18T08:23:35;100110.03;;;9.38;56.61
11343;BME280;5726;42.160;24.746;2023-03-18T08:26:00;100114.34;;;9.54;56.31
11343;BME280;5726;42.160;24.746;2023-03-18T08:28:26;100107.38;;;9.48;56.11
11343;BME280;5726;42.160;24.746;2023-03-18T08:30:53;100105.47;;;9.68;55.58
11343;BME280;5726;42.160;24.746;2023-03-18T08:33:20;100107.09;;;9.84;54.18
11343;BME280;5726;42.160;24.746;2023-03-18T08:35:46;100103.63;;;10.03;53.70
11343;BME280;5726;42.160;24.746;2023-03-18T08:38:12;100109.75;;;10.19;51.94
11343;BME280;5726;42.160;24.746;2023-03-18T08:40:39;100100.94;;;10.03;52.49
11343;BME280;5726;42.160;24.746;2023-03-18T08:43:05;100107.38;;;9.93;52.89
11343;BME280;5726;42.160;24.746;2023-03-18T08:45:31;100096.66;;;10.02;54.43
11343;BME280;5726;42.160;24.746;2023-03-18T08:47:58;100105.72;;;10.16;56.06
11343;BME280;5726;42.160;24.746;2023-03-18T08:50:23;100107.38;;;9.98;55.14
11343;BME280;5726;42.160;24.746;2023-03-18T08:52:54;100102.03;;;10.07;55.37
11343;BME280;5726;42.160;24.746;2023-03-18T08:55:21;100108.41;;;10.16;54.20
11343;BME280;5726;42.160;24.746;2023-03-18T08:57:46;100111.63;;;10.08;54.09
11343;BME280;5726;42.160;24.746;2023-03-18T09:00:13;100113.22;;;10.19;53.99
11343;BME280;5726;42.160;24.746;2023-03-18T09:02:39;100126.06;;;10.42;52.87
11343;BME280;5726;42.160;24.746;2023-03-18T09:05:06;100118.47;;;10.59;52.29
11343;BME280;5726;42.160;24.746;2023-03-18T09:07:31;100125.13;;;10.76;53.10
11343;BME280;5726;42.160;24.746;2023-03-18T09:09:57;100128.13;;;10.65;51.92
11343;BME280;5726;42.160;24.746;2023-03-18T09:12:22;100121.66;;;10.71;50.29
11343;BME280;5726;42.160;24.746;2023-03-18T09:14:48;100125.47;;;10.60;50.75
11343;BME280;5726;42.160;24.746;2023-03-18T09:17:14;100125.88;;;10.82;50.57
11343;BME280;5726;42.160;24.746;2023-03-18T09:19:40;100124.38;;;10.66;49.65
11343;BME280;5726;42.160;24.746;2023-03-18T09:22:05;100132.66;;;10.69;49.64
11343;BME280;5726;42.160;24.746;2023-03-18T09:24:31;100126.50;;;10.64;49.95
11343;BME280;5726;42.160;24.746;2023-03-18T09:26:57;100130.13;;;10.97;48.00
11343;BME280;5726;42.160;24.746;2023-03-18T09:29:24;100124.25;;;10.91;48.26
11343;BME280;5726;42.160;24.746;2023-03-18T09:31:50;100127.75;;;10.86;48.72
11343;BME280;5726;42.160;24.746;2023-03-18T09:34:16;100123.25;;;10.67;48.58
11343;BME280;5726;42.160;24.746;2023-03-18T09:36:41;100129.59;;;10.91;47.98
11343;BME280;5726;42.160;24.746;2023-03-18T09:39:15;100131.84;;;10.64;48.21
11343;BME280;5726;42.160;24.746;2023-03-18T09:47:32;100149.25;;;10.71;47.31
11343;BME280;5726;42.160;24.746;2023-03-18T09:50:00;100153.91;;;10.46;48.34
11343;BME280;5726;42.160;24.746;2023-03-18T09:52:49;100152.56;;;10.48;48.85
11343;BME280;5726;42.160;24.746;2023-03-18T09:55:36;100155.25;;;10.48;49.02
11343;BME280;5726;42.160;24.746;2023-03-18T09:58:12;100147.47;;;10.47;49.03
11343;BME280;5726;42.160;24.746;2023-03-18T10:00:40;100157.13;;;10.48;49.03
11343;BME280;5726;42.160;24.746;2023-03-18T10:03:42;100159.72;;;10.73;48.93
11343;BME280;5726;42.160;24.746;2023-03-18T10:06:14;100162.47;;;10.43;49.80
11343;BME280;5726;42.160;24.746;2023-03-18T10:13:59;100156.25;;;10.62;49.09
11343;BME280;5726;42.160;24.746;2023-03-18T10:16:42;100161.06;;;10.75;48.91
11343;BME280;5726;42.160;24.746;2023-03-18T10:19:09;100170.25;;;10.54;49.66
11343;BME280;5726;42.160;24.746;2023-03-18T10:21:52;100169.50;;;10.29;50.26
11343;BME280;5726;42.160;24.746;2023-03-18T10:24:35;100175.94;;;10.18;51.34
11343;BME280;5726;42.160;24.746;2023-03-18T10:35:48;100164.63;;;10.41;49.20
11343;BME280;5726;42.160;24.746;2023-03-18T10:40:45;100168.59;;;10.68;46.93
11343;BME280;5726;42.160;24.746;2023-03-18T10:43:23;100165.63;;;10.70;46.35
11343;BME280;5726;42.160;24.746;2023-03-18T10:46:00;100159.75;;;10.68;46.72
11343;BME280;5726;42.160;24.746;2023-03-18T10:48:27;100164.56;;;10.71;45.90
11343;BME280;5726;42.160;24.746;2023-03-18T10:53:50;100157.91;;;10.58;44.59
11343;BME280;5726;42.160;24.746;2023-03-18T10:56:19;100165.94;;;10.58;43.72
11343;BME280;5726;42.160;24.746;2023-03-18T10:58:45;100160.00;;;10.76;43.01
11343;BME280;5726;42.160;24.746;2023-03-18T11:01:13;100158.00;;;11.01;48.75
11343;BME280;5726;42.160;24.746;2023-03-18T11:03:58;100166.38;;;11.38;48.68
11343;BME280;5726;42.160;24.746;2023-03-18T11:06:43;100172.81;;;11.42;45.02
11343;BME280;5726;42.160;24.746;2023-03-18T11:09:18;100164.34;;;11.25;45.02
11343;BME280;5726;42.160;24.746;2023-03-18T11:11:46;100161.88;;;11.29;44.49
11343;BME280;5726;42.160;24.746;2023-03-18T11:14:20;100159.44;;;11.37;44.80
11343;BME280;5726;42.160;24.746;2023-03-18T11:17:00;100172.75;;;11.09;45.17
11343;BME280;5726;42.160;24.746;2023-03-18T11:19:32;100163.66;;;11.00;45.69
11343;BME280;5726;42.160;24.746;2023-03-18T11:22:23;100151.06;;;10.96;45.58
11343;BME280;5726;42.160;24.746;2023-03-18T11:25:24;100155.19;;;11.26;45.12
11343;BME280;5726;42.160;24.746;2023-03-18T11:27:57;100159.09;;;11.00;46.00
11343;BME280;5726;42.160;24.746;2023-03-18T11:30:25;100153.28;;;10.74;46.75
11343;BME280;5726;42.160;24.746;2023-03-18T11:32:56;100148.25;;;10.57;47.19
11343;BME280;5726;42.160;24.746;2023-03-18T11:35:51;100150.13;;;10.62;47.80
11343;BME280;5726;42.160;24.746;2023-03-18T11:38:23;100156.03;;;10.54;47.98
11343;BME280;5726;42.160;24.746;2023-03-18T11:43:37;100145.72;;;10.86;47.09
11343;BME280;5726;42.160;24.746;2023-03-18T11:46:05;100137.50;;;11.20;46.32
11343;BME280;5726;42.160;24.746;2023-03-18T11:48:40;100147.22;;;11.16;46.50
11343;BME280;5726;42.160;24.746;2023-03-18T11:56:59;100134.41;;;10.98;46.54
11343;BME280;5726;42.160;24.746;2023-03-18T12:00:31;100140.19;;;11.25;49.43
11343;BME280;5726;42.160;24.746;2023-03-18T12:10:35;100127.88;;;11.62;44.30
11343;BME280;5726;42.160;24.746;2023-03-18T12:24:31;100111.91;;;12.32;41.93
11343;BME280;5726;42.160;24.746;2023-03-18T12:49:00;100095.88;;;12.69;40.48
11343;BME280;5726;42.160;24.746;2023-03-18T12:51:43;100094.72;;;12.75;39.52
11343;BME280;5726;42.160;24.746;2023-03-18T12:54:19;100080.03;;;12.90;39.48
11343;BME280;5726;42.160;24.746;2023-03-18T12:56:49;100081.34;;;12.93;39.88
11343;BME280;5726;42.160;24.746;2023-03-18T12:59:32;100075.75;;;12.66;39.17
11343;BME280;5726;42.160;24.746;2023-03-18T13:04:56;100067.81;;;12.75;39.61
11343;BME280;5726;42.160;24.746;2023-03-18T13:07:42;100071.06;;;12.53;39.20
11343;BME280;5726;42.160;24.746;2023-03-18T13:10:22;100070.91;;;12.87;38.86
11343;BME280;5726;42.160;24.746;2023-03-18T13:12:52;100070.13;;;12.86;38.42
11343;BME280;5726;42.160;24.746;2023-03-18T13:15:38;100064.03;;;12.57;39.23
11343;BME280;5726;42.160;24.746;2023-03-18T13:18:28;100070.38;;;12.66;38.71
11343;BME280;5726;42.160;24.746;2023-03-18T13:20:57;100063.50;;;12.32;39.20
11343;BME280;5726;42.160;24.746;2023-03-18T13:37:08;100056.34;;;12.46;38.64
11343;BME280;5726;42.160;24.746;2023-03-18T13:42:28;100042.06;;;12.69;37.90
11343;BME280;5726;42.160;24.746;2023-03-18T13:47:39;100050.41;;;12.49;38.29
11343;BME280;5726;42.160;24.746;2023-03-18T13:52:41;100041.09;;;12.60;37.87
11343;BME280;5726;42.160;24.746;2023-03-18T14:00:31;100036.63;;;12.74;37.59
11343;BME280;5726;42.160;24.746;2023-03-18T14:08:44;100042.34;;;12.67;37.72
11343;BME280;5726;42.160;24.746;2023-03-18T14:13:43;100032.81;;;12.98;37.72
11343;BME280;5726;42.160;24.746;2023-03-18T14:16:11;100028.97;;;13.04;38.08
11343;BME280;5726;42.160;24.746;2023-03-18T14:18:37;100027.81;;;12.68;38.67
11343;BME280;5726;42.160;24.746;2023-03-18T14:21:04;100026.66;;;12.74;38.90
11343;BME280;5726;42.160;24.746;2023-03-18T14:23:35;100028.50;;;12.79;38.67
11343;BME280;5726;42.160;24.746;2023-03-18T14:26:20;100014.34;;;12.50;38.89
11343;BME280;5726;42.160;24.746;2023-03-18T14:28:52;100014.34;;;12.50;39.34
11343;BME280;5726;42.160;24.746;2023-03-18T14:31:29;100016.66;;;12.38;39.15
11343;BME280;5726;42.160;24.746;2023-03-18T14:37:03;100010.03;;;12.90;44.01
11343;BME280;5726;42.160;24.746;2023-03-18T14:39:42;100015.25;;;12.82;45.81
11343;BME280;5726;42.160;24.746;2023-03-18T14:42:35;100013.06;;;13.21;41.37
11343;BME280;5726;42.160;24.746;2023-03-18T14:45:24;100019.34;;;13.16;37.49
11343;BME280;5726;42.160;24.746;2023-03-18T14:47:54;100021.47;;;13.01;38.96
11343;BME280;5726;42.160;24.746;2023-03-18T14:53:41;100009.78;;;13.24;36.31
11343;BME280;5726;42.160;24.746;2023-03-18T14:56:34;100004.66;;;13.09;36.57
11343;BME280;5726;42.160;24.746;2023-03-18T14:59:00;100005.13;;;13.29;36.41
11343;BME280;5726;42.160;24.746;2023-03-18T15:01:37;99991.66;;;13.29;36.51
11343;BME280;5726;42.160;24.746;2023-03-18T15:04:05;100004.47;;;12.82;37.15
11343;BME280;5726;42.160;24.746;2023-03-18T15:06:32;100011.09;;;12.53;37.93
11343;BME280;5726;42.160;24.746;2023-03-18T15:08:59;100008.03;;;12.83;37.47